Time;durP1;ratioP1;P1;durP2;ratioP2;P2;SDS_P1;SDS_P2;PMS_P1;PMS_P2;Temp;Humidity;BMP_temperature;BMP_pressure;BME280_temperature;BME280_humidity;BME280_pressure;Samples;Min_cycle;Max_cycle;Signal;HPM_P1;HPM_P2
2021/08/05 00:02:10;;;;;;;3.42;2.05;;;19.30;99.90;;;;;;5092569;28;20227;-61
2021/08/05 00:04:37;;;;;;;2.80;1.67;;;19.30;99.90;;;;;;5092304;28;20204;-61
2021/08/05 00:07:04;;;;;;;3.55;1.85;;;19.30;99.90;;;;;;5092276;28;20694;-61
2021/08/05 00:09:31;;;;;;;2.65;2.05;;;19.20;99.90;;;;;;5092131;28;20208;-61
2021/08/05 00:11:59;;;;;;;3.78;2.30;;;19.10;99.90;;;;;;5092210;28;20215;-61
2021/08/05 00:14:26;;;;;;;4.05;2.10;;;19.10;99.90;;;;;;5092138;28;20204;-61
2021/08/05 00:16:52;;;;;;;4.03;2.00;;;19.10;99.90;;;;;;5092151;28;20228;-61
2021/08/05 00:19:19;;;;;;;3.58;1.90;;;19.10;99.90;;;;;;5091905;28;20621;-61
2021/08/05 00:21:46;;;;;;;4.80;2.30;;;19.00;99.90;;;;;;5092344;28;20225;-61
2021/08/05 00:24:13;;;;;;;3.13;2.10;;;19.00;99.90;;;;;;5092092;28;20204;-61
2021/08/05 00:26:39;;;;;;;3.78;2.00;;;19.00;99.90;;;;;;5091952;28;20228;-61
2021/08/05 00:29:07;;;;;;;2.80;2.47;;;19.00;99.90;;;;;;5092229;28;20254;-61
2021/08/05 00:31:34;;;;;;;4.50;1.95;;;19.00;99.90;;;;;;5091596;28;20212;-61
2021/08/05 00:34:01;;;;;;;2.45;2.25;;;18.90;99.90;;;;;;5091476;28;20258;-61
2021/08/05 00:36:27;;;;;;;2.92;2.20;;;18.90;99.90;;;;;;5091862;28;20228;-61
2021/08/05 00:38:54;;;;;;;2.97;1.83;;;18.90;99.90;;;;;;5091487;28;20212;-61
2021/08/05 00:41:21;;;;;;;2.17;1.98;;;18.80;99.90;;;;;;5091712;28;20203;-61
2021/08/05 00:43:48;;;;;;;5.43;2.15;;;18.80;99.90;;;;;;5091313;28;20752;-60
2021/08/05 00:46:16;;;;;;;3.58;2.17;;;18.80;99.90;;;;;;5091870;28;20227;-61
2021/08/05 00:48:42;;;;;;;2.42;1.80;;;18.80;99.90;;;;;;5091501;28;20204;-61
2021/08/05 00:51:09;;;;;;;2.85;2.25;;;18.80;99.90;;;;;;5091475;28;20204;-61
2021/08/05 00:53:36;;;;;;;2.97;2.30;;;18.80;99.90;;;;;;5091195;28;20200;-61
2021/08/05 00:56:03;;;;;;;3.00;2.20;;;18.80;99.90;;;;;;5091581;28;20304;-61
2021/08/05 00:58:29;;;;;;;2.95;2.00;;;18.80;99.90;;;;;;5091146;28;20694;-61
2021/08/05 01:01:04;;;;;;;7.78;2.67;;;18.70;99.90;;;;;;5091357;28;20596;-61
2021/08/05 01:03:38;;;;;;;4.05;2.30;;;18.70;99.90;;;;;;5091141;28;20220;-61
2021/08/05 01:06:10;;;;;;;4.20;2.38;;;18.80;99.90;;;;;;5091096;28;20779;-61
2021/08/05 01:08:41;;;;;;;2.35;2.13;;;18.80;99.90;;;;;;5091118;28;20556;-61
2021/08/05 01:11:14;;;;;;;4.53;2.50;;;18.70;99.90;;;;;;5091255;28;20204;-61
2021/08/05 01:13:49;;;;;;;3.28;2.30;;;18.70;99.90;;;;;;5090886;28;20586;-61
2021/08/05 01:16:18;;;;;;;5.95;2.40;;;18.70;99.90;;;;;;5090969;28;20223;-61
2021/08/05 01:18:47;;;;;;;3.10;2.65;;;18.70;99.90;;;;;;5091411;28;20200;-61
2021/08/05 01:21:19;;;;;;;3.55;2.33;;;18.80;99.90;;;;;;5091801;28;20208;-61
2021/08/05 01:23:51;;;;;;;3.08;2.63;;;18.70;99.90;;;;;;5091969;28;20274;-61
2021/08/05 01:26:22;;;;;;;5.25;2.30;;;18.70;99.90;;;;;;5091889;28;20318;-61
2021/08/05 01:28:51;;;;;;;2.90;2.50;;;18.70;99.90;;;;;;5091790;28;20299;-61
2021/08/05 01:31:22;;;;;;;3.50;2.58;;;18.70;99.90;;;;;;5091859;28;20216;-61
2021/08/05 01:33:51;;;;;;;4.22;2.45;;;18.70;99.90;;;;;;5090930;28;20208;-61
2021/08/05 01:36:19;;;;;;;2.80;2.45;;;18.70;99.90;;;;;;5090958;28;20247;-61
2021/08/05 01:38:48;;;;;;;3.92;2.45;;;18.70;99.90;;;;;;5090805;28;20227;-61
2021/08/05 01:41:17;;;;;;;2.50;2.30;;;18.70;99.90;;;;;;5090730;28;20208;-61
2021/08/05 01:43:45;;;;;;;4.25;2.65;;;18.70;99.90;;;;;;5092281;28;20223;-61
2021/08/05 01:46:13;;;;;;;2.67;2.30;;;18.70;99.90;;;;;;5095017;28;20232;-61
2021/08/05 01:48:40;;;;;;;2.67;2.33;;;18.60;99.90;;;;;;5095391;28;20651;-61
2021/08/05 01:51:08;;;;;;;3.38;2.53;;;18.60;99.90;;;;;;5095177;28;20579;-61
2021/08/05 01:53:35;;;;;;;3.25;2.35;;;18.50;99.90;;;;;;5095282;28;20682;-61
2021/08/05 01:56:02;;;;;;;3.17;2.47;;;18.50;99.90;;;;;;5094766;28;20232;-61
2021/08/05 01:58:28;;;;;;;4.40;2.65;;;18.40;99.90;;;;;;5094759;28;20729;-61
2021/08/05 02:00:56;;;;;;;4.35;2.70;;;18.40;99.90;;;;;;5095040;28;20211;-61
2021/08/05 02:03:24;;;;;;;3.75;2.83;;;18.30;99.90;;;;;;5094646;28;20319;-61
2021/08/05 02:06:05;;;;;;;3.25;2.42;;;18.20;99.90;;;;;;5094642;28;20220;-61
2021/08/05 02:08:38;;;;;;;3.55;2.72;;;18.30;99.90;;;;;;5094369;28;20277;-61
2021/08/05 02:11:07;;;;;;;4.13;2.35;;;18.20;99.90;;;;;;5094693;28;20208;-61
2021/08/05 02:13:37;;;;;;;3.42;2.47;;;18.20;99.90;;;;;;5094225;28;20212;-61
2021/08/05 02:16:07;;;;;;;4.75;2.70;;;18.20;99.90;;;;;;5094354;28;20617;-61
2021/08/05 02:18:36;;;;;;;3.25;2.45;;;18.20;99.90;;;;;;5094225;28;20628;-61
2021/08/05 02:21:04;;;;;;;3.13;2.45;;;18.20;99.90;;;;;;5094165;28;20212;-61
2021/08/05 02:23:32;;;;;;;3.97;2.70;;;18.30;99.90;;;;;;5093819;28;20680;-61
2021/08/05 02:25:59;;;;;;;2.93;2.53;;;18.30;99.90;;;;;;5094077;28;20236;-61
2021/08/05 02:28:26;;;;;;;3.83;2.78;;;18.40;99.90;;;;;;5094159;28;20208;-61
2021/08/05 02:30:55;;;;;;;3.58;3.05;;;18.40;99.90;;;;;;5093988;28;20215;-61
2021/08/05 02:33:23;;;;;;;3.83;3.17;;;18.40;99.90;;;;;;5093924;28;20204;-61
2021/08/05 02:35:52;;;;;;;3.20;2.90;;;18.40;99.90;;;;;;5094029;28;20604;-61
2021/08/05 02:38:19;;;;;;;3.33;2.70;;;18.40;99.90;;;;;;5094040;28;20204;-61
2021/08/05 02:40:48;;;;;;;4.53;2.70;;;18.50;99.90;;;;;;5093836;28;20655;-61
2021/08/05 02:43:16;;;;;;;4.95;2.80;;;18.50;99.90;;;;;;5093792;28;20278;-61
2021/08/05 02:45:45;;;;;;;4.25;2.17;;;18.50;99.90;;;;;;5093612;28;20228;-61
2021/08/05 02:48:13;;;;;;;3.90;2.00;;;18.60;99.90;;;;;;5093512;28;20207;-61
2021/08/05 02:50:41;;;;;;;2.70;1.80;;;18.60;99.90;;;;;;5093986;28;20207;-61
2021/08/05 02:53:09;;;;;;;3.40;2.20;;;18.50;99.90;;;;;;5093811;28;20282;-61
2021/08/05 02:55:37;;;;;;;2.83;2.00;;;18.50;99.90;;;;;;5092723;28;20259;-61
2021/08/05 02:58:04;;;;;;;9.20;8.30;;;18.40;99.90;;;;;;5093563;28;20253;-61
2021/08/05 03:00:31;;;;;;;5.95;3.03;;;18.30;99.90;;;;;;5093497;28;20257;-60
2021/08/05 03:02:58;;;;;;;5.10;2.40;;;18.10;99.90;;;;;;5093587;28;20384;-61
2021/08/05 03:05:25;;;;;;;3.75;2.30;;;18.00;99.90;;;;;;5093392;28;20535;-61
2021/08/05 03:07:52;;;;;;;8.77;4.93;;;17.80;99.90;;;;;;5093387;28;20204;-61
2021/08/05 03:10:20;;;;;;;4.72;2.83;;;17.70;99.90;;;;;;5093475;28;20253;-61
2021/08/05 03:12:46;;;;;;;4.95;2.40;;;17.60;99.90;;;;;;5093802;28;20230;-61
2021/08/05 03:15:13;;;;;;;4.10;3.40;;;17.40;99.90;;;;;;5093165;28;20308;-61
2021/08/05 03:17:40;;;;;;;3.88;3.17;;;17.30;99.90;;;;;;5093243;28;20207;-61
2021/08/05 03:20:08;;;;;;;6.00;4.72;;;17.20;99.90;;;;;;5093124;28;20208;-61
2021/08/05 03:22:36;;;;;;;4.10;3.60;;;17.10;99.90;;;;;;5093021;28;20212;-61
2021/08/05 03:25:03;;;;;;;6.27;3.60;;;17.00;99.90;;;;;;5093283;28;20657;-61
2021/08/05 03:27:31;;;;;;;3.63;2.90;;;16.90;99.90;;;;;;5093056;28;20208;-60
2021/08/05 03:29:57;;;;;;;3.70;2.97;;;16.90;99.90;;;;;;5093048;28;20204;-60
2021/08/05 03:32:24;;;;;;;6.73;3.70;;;16.80;99.90;;;;;;5092850;28;20204;-60
2021/08/05 03:34:51;;;;;;;12.23;8.73;;;16.80;99.90;;;;;;5092802;28;20224;-60
2021/08/05 03:37:17;;;;;;;8.57;3.83;;;16.70;99.90;;;;;;5092834;28;20215;-60
2021/08/05 03:39:44;;;;;;;8.97;3.80;;;16.80;99.90;;;;;;5092708;28;20200;-60
2021/08/05 03:42:11;;;;;;;6.30;2.80;;;16.70;99.90;;;;;;5092649;28;20200;-60
2021/08/05 03:44:39;;;;;;;6.33;3.20;;;16.70;99.90;;;;;;5092536;28;20227;-60
2021/08/05 03:47:06;;;;;;;4.97;3.50;;;16.70;99.90;;;;;;5092856;28;20588;-60
2021/08/05 03:49:32;;;;;;;6.20;2.90;;;16.70;99.90;;;;;;5092481;28;20204;-60
2021/08/05 03:51:59;;;;;;;6.17;2.80;;;16.60;99.90;;;;;;5092808;28;20200;-60
2021/08/05 03:54:26;;;;;;;3.97;3.27;;;16.50;99.90;;;;;;5092644;28;20200;-60
2021/08/05 03:56:52;;;;;;;6.97;3.60;;;16.40;99.90;;;;;;5092840;28;20723;-60
2021/08/05 03:59:19;;;;;;;6.23;3.40;;;16.40;99.90;;;;;;5092263;28;20671;-60
2021/08/05 04:01:47;;;;;;;8.63;4.33;;;16.40;99.90;;;;;;5092238;28;20676;-59
2021/08/05 04:04:14;;;;;;;5.67;3.30;;;16.40;99.90;;;;;;5092165;28;20310;-62
2021/08/05 04:06:41;;;;;;;6.37;4.43;;;16.30;99.90;;;;;;5092045;28;20227;-58
2021/08/05 04:09:07;;;;;;;9.67;7.30;;;16.40;99.90;;;;;;5092148;28;20664;-59
2021/08/05 04:11:34;;;;;;;7.20;3.30;;;16.40;99.90;;;;;;5092117;28;20200;-59
2021/08/05 04:14:01;;;;;;;10.20;7.70;;;16.50;99.90;;;;;;5091771;28;20479;-60
2021/08/05 04:16:28;;;;;;;8.93;4.07;;;16.40;99.90;;;;;;5091995;28;20273;-59
2021/08/05 04:18:55;;;;;;;4.77;3.27;;;16.50;99.90;;;;;;5091802;28;20204;-59
2021/08/05 04:21:22;;;;;;;4.47;2.80;;;16.40;99.90;;;;;;5091925;28;20261;-59
2021/08/05 04:23:49;;;;;;;4.43;2.77;;;16.30;99.90;;;;;;5091339;28;20765;-59
2021/08/05 04:26:15;;;;;;;4.53;2.80;;;16.20;99.90;;;;;;5091856;28;20232;-59
2021/08/05 04:28:42;;;;;;;5.70;2.93;;;16.20;99.90;;;;;;5091814;28;20258;-59
2021/08/05 04:31:09;;;;;;;5.27;3.30;;;16.20;99.90;;;;;;5091787;28;20247;-60
2021/08/05 04:33:36;;;;;;;4.43;2.80;;;16.20;99.90;;;;;;5091659;28;20209;-59
2021/08/05 04:36:04;;;;;;;3.87;2.63;;;16.30;99.90;;;;;;5091692;28;20253;-60
2021/08/05 04:38:31;;;;;;;3.90;2.83;;;16.30;99.90;;;;;;5091341;28;20208;-60
2021/08/05 04:40:57;;;;;;;4.87;2.70;;;16.30;99.90;;;;;;5091826;28;20207;-59
2021/08/05 04:43:24;;;;;;;4.13;2.57;;;16.30;99.90;;;;;;5091351;28;20224;-59
2021/08/05 04:45:51;;;;;;;5.43;2.60;;;16.30;99.90;;;;;;5091214;28;20228;-60
2021/08/05 04:48:17;;;;;;;3.77;2.50;;;16.40;99.90;;;;;;5091369;28;20204;-59
2021/08/05 04:50:44;;;;;;;7.03;2.80;;;16.50;99.90;;;;;;5091197;28;20219;-59
2021/08/05 04:53:16;;;;;;;3.53;2.93;;;16.60;99.90;;;;;;5091347;28;20206;-59
2021/08/05 04:55:43;;;;;;;3.42;2.53;;;16.70;99.90;;;;;;5091279;28;20319;-59
2021/08/05 04:58:10;;;;;;;4.30;2.95;;;16.90;99.90;;;;;;5091135;28;20208;-59
2021/08/05 05:00:38;;;;;;;3.57;2.30;;;17.00;99.90;;;;;;5091215;28;20200;-59
2021/08/05 05:03:05;;;;;;;5.13;2.80;;;17.10;99.90;;;;;;5091691;28;20204;-58
2021/08/05 05:05:33;;;;;;;4.93;2.90;;;17.30;99.90;;;;;;5091360;28;20745;-59
2021/08/05 05:08:17;;;;;;;3.95;3.00;;;17.50;99.90;;;;;;5090803;28;20628;-58
2021/08/05 05:10:43;;;;;;;5.80;3.67;;;17.60;99.90;;;;;;5091177;28;20480;-59
2021/08/05 05:13:10;;;;;;;8.02;4.20;;;17.80;99.90;;;;;;5090848;28;20235;-58
2021/08/05 05:15:37;;;;;;;3.50;2.90;;;18.00;99.90;;;;;;5090706;28;20224;-59
2021/08/05 05:18:05;;;;;;;3.63;2.67;;;18.10;99.90;;;;;;5090244;28;20205;-59
2021/08/05 05:20:31;;;;;;;7.45;2.63;;;18.20;99.90;;;;;;5090791;28;20204;-61
2021/08/05 05:22:58;;;;;;;3.20;2.30;;;18.40;99.90;;;;;;5090862;28;20215;-59
2021/08/05 05:25:27;;;;;;;4.40;2.58;;;18.60;99.90;;;;;;5090617;28;20232;-60
2021/08/05 05:27:54;;;;;;;4.13;2.42;;;18.70;99.90;;;;;;5090891;28;20832;-60
2021/08/05 05:30:21;;;;;;;3.15;2.67;;;18.80;99.90;;;;;;5091253;28;20686;-59
2021/08/05 05:32:48;;;;;;;3.42;2.75;;;18.90;99.90;;;;;;5090826;28;20728;-59
2021/08/05 05:35:16;;;;;;;3.60;2.90;;;19.00;99.90;;;;;;5090819;28;20231;-59
2021/08/05 05:37:43;;;;;;;3.17;2.67;;;19.30;99.90;;;;;;5090982;28;20273;-59
2021/08/05 05:40:11;;;;;;;3.00;2.60;;;19.40;99.90;;;;;;5090671;28;20356;-59
2021/08/05 05:42:39;;;;;;;6.38;3.63;;;19.50;99.90;;;;;;5091111;28;20204;-59
2021/08/05 05:45:07;;;;;;;5.03;2.85;;;19.80;99.90;;;;;;5090570;28;20658;-59
2021/08/05 05:47:34;;;;;;;2.80;2.42;;;20.10;99.90;;;;;;5090738;28;20314;-59
2021/08/05 05:50:01;;;;;;;3.95;2.60;;;20.60;99.90;;;;;;5090795;28;20205;-59
2021/08/05 05:52:28;;;;;;;3.22;2.20;;;21.10;99.90;;;;;;5090491;28;20200;-60
2021/08/05 05:54:54;;;;;;;3.90;2.55;;;22.00;99.90;;;;;;5090404;28;20227;-60
2021/08/05 05:57:21;;;;;;;3.30;2.50;;;22.50;99.90;;;;;;5090469;28;20211;-60
2021/08/05 05:59:49;;;;;;;3.92;2.45;;;22.60;99.90;;;;;;5090372;28;20204;-59
2021/08/05 06:02:16;;;;;;;5.03;2.72;;;22.60;99.90;;;;;;5090875;28;20215;-59
2021/08/05 06:04:43;;;;;;;3.40;2.72;;;22.50;99.90;;;;;;5090307;28;20220;-59
2021/08/05 06:07:09;;;;;;;8.65;2.63;;;22.40;99.90;;;;;;5090767;28;20212;-59
2021/08/05 06:09:36;;;;;;;7.53;2.75;;;22.30;99.90;;;;;;5090599;28;20205;-59
2021/08/05 06:12:03;;;;;;;4.40;2.75;;;22.20;99.90;;;;;;5090778;28;20204;-59
2021/08/05 06:14:30;;;;;;;4.35;2.33;;;22.10;99.90;;;;;;5090316;28;20695;-60
2021/08/05 06:16:58;;;;;;;3.67;2.40;;;22.00;99.90;;;;;;5090749;28;20265;-59
2021/08/05 06:19:25;;;;;;;3.75;2.30;;;21.80;99.90;;;;;;5090539;28;20261;-59
2021/08/05 06:21:51;;;;;;;4.07;3.20;;;21.60;99.90;;;;;;5090939;28;20262;-59
2021/08/05 06:24:18;;;;;;;3.67;2.40;;;21.50;99.90;;;;;;5090536;28;20703;-59
2021/08/05 06:26:45;;;;;;;3.78;3.28;;;21.50;99.90;;;;;;5090385;28;20239;-60
2021/08/05 06:29:12;;;;;;;16.15;13.05;;;21.50;99.90;;;;;;5090462;28;20211;-60
2021/08/05 06:31:39;;;;;;;20.48;8.75;;;21.60;99.90;;;;;;5093223;28;20208;-67
2021/08/05 06:34:07;;;;;;;9.65;3.97;;;22.00;99.90;;;;;;5093935;28;20205;-60
2021/08/05 06:36:34;;;;;;;5.70;2.97;;;22.10;99.90;;;;;;5094193;28;20232;-60
2021/08/05 06:39:00;;;;;;;6.40;2.78;;;22.20;99.90;;;;;;5093797;28;20204;-61
2021/08/05 06:41:27;;;;;;;6.68;2.92;;;22.30;99.90;;;;;;5093893;28;20210;-60
2021/08/05 06:43:54;;;;;;;7.70;2.38;;;22.60;99.90;;;;;;5093482;28;20220;-60
2021/08/05 06:46:21;;;;;;;2.97;2.00;;;23.50;99.90;;;;;;5093748;28;20221;-60
2021/08/05 06:48:47;;;;;;;25.23;3.83;;;24.70;99.90;;;;;;5093431;28;20552;-60
2021/08/05 06:51:16;;;;;;;5.28;2.38;;;26.20;99.90;;;;;;5093612;28;20212;-60
2021/08/05 06:53:42;;;;;;;3.30;2.05;;;28.30;99.90;;;;;;5093446;28;20212;-60
2021/08/05 06:56:10;;;;;;;3.63;2.20;;;30.30;99.90;;;;;;5093622;28;20224;-60
2021/08/05 06:58:37;;;;;;;3.38;2.00;;;31.40;96.90;;;;;;5093909;28;20208;-60
2021/08/05 07:01:03;;;;;;;2.72;1.90;;;32.80;92.50;;;;;;5093915;28;20232;-61
2021/08/05 07:03:30;;;;;;;3.17;2.15;;;34.30;84.40;;;;;;5093466;28;20207;-61
2021/08/05 07:05:57;;;;;;;2.38;1.92;;;35.80;76.00;;;;;;5093884;28;20224;-61
2021/08/05 07:08:25;;;;;;;3.33;1.88;;;37.30;69.10;;;;;;5093253;28;20307;-61
2021/08/05 07:10:51;;;;;;;4.57;2.55;;;37.70;63.60;;;;;;5093983;28;20208;-61
2021/08/05 07:13:23;;;;;;;7.95;2.33;;;36.70;63.10;;;;;;5093798;28;20612;-61
2021/08/05 07:15:50;;;;;;;5.03;2.40;;;35.60;64.80;;;;;;5094780;28;20225;-60
2021/08/05 07:18:16;;;;;;;2.50;2.25;;;33.20;68.40;;;;;;5095913;28;20257;-60
2021/08/05 07:20:44;;;;;;;2.60;2.10;;;31.30;72.50;;;;;;5093387;28;20208;-60
2021/08/05 07:23:10;;;;;;;3.05;2.13;;;30.20;75.50;;;;;;5093125;28;20253;-60
2021/08/05 07:25:38;;;;;;;2.30;2.10;;;28.90;79.90;;;;;;5092736;28;20236;-60
2021/08/05 07:28:05;;;;;;;2.55;2.15;;;28.10;84.00;;;;;;5092874;28;20211;-60
2021/08/05 07:30:32;;;;;;;2.58;1.80;;;28.00;86.40;;;;;;5092898;28;20204;-61
2021/08/05 07:32:59;;;;;;;3.15;1.90;;;28.90;84.90;;;;;;5092710;28;20299;-61
2021/08/05 07:35:26;;;;;;;2.90;2.30;;;29.70;82.20;;;;;;5092372;28;20224;-61
2021/08/05 07:37:54;;;;;;;3.85;1.83;;;30.30;79.40;;;;;;5092948;28;20208;-61
2021/08/05 07:40:21;;;;;;;3.85;2.75;;;30.40;79.20;;;;;;5092706;28;20208;-60
2021/08/05 07:42:49;;;;;;;3.10;2.10;;;30.00;80.30;;;;;;5092008;28;20261;-60
2021/08/05 07:45:16;;;;;;;4.05;2.20;;;29.80;80.60;;;;;;5092168;28;20224;-61
2021/08/05 07:47:43;;;;;;;2.45;2.25;;;30.00;81.00;;;;;;5092217;28;20216;-61
2021/08/05 07:50:10;;;;;;;3.05;2.35;;;30.80;78.30;;;;;;5092224;28;20200;-60
2021/08/05 07:52:37;;;;;;;2.88;2.00;;;30.10;79.60;;;;;;5092503;28;20208;-60
2021/08/05 07:55:05;;;;;;;2.85;2.42;;;30.20;79.90;;;;;;5092023;28;20216;-61
2021/08/05 07:57:31;;;;;;;3.75;2.40;;;31.20;77.30;;;;;;5092041;28;20682;-61
2021/08/05 08:00:00;;;;;;;3.42;2.30;;;31.10;76.40;;;;;;5092019;28;20234;-60
2021/08/05 08:02:27;;;;;;;2.72;2.10;;;30.80;77.50;;;;;;5091977;28;20243;-60
2021/08/05 08:04:54;;;;;;;2.90;2.10;;;30.60;76.90;;;;;;5091986;28;20606;-61
2021/08/05 08:07:21;;;;;;;3.72;2.22;;;31.00;75.60;;;;;;5092698;28;20607;-61
2021/08/05 08:09:47;;;;;;;3.28;2.20;;;31.60;75.30;;;;;;5092010;28;20723;-60
2021/08/05 08:12:14;;;;;;;2.92;2.40;;;31.90;74.00;;;;;;5091942;28;20208;-61
2021/08/05 08:14:41;;;;;;;3.78;2.25;;;31.80;72.60;;;;;;5091898;28;20231;-61
2021/08/05 08:17:09;;;;;;;3.40;2.20;;;31.40;73.40;;;;;;5092110;28;20211;-60
2021/08/05 08:19:36;;;;;;;2.67;2.20;;;29.90;77.00;;;;;;5091971;28;20204;-60
2021/08/05 08:22:03;;;;;;;3.80;2.28;;;28.60;80.80;;;;;;5091955;28;20290;-60
2021/08/05 08:24:30;;;;;;;3.28;2.50;;;28.40;82.70;;;;;;5091558;28;20699;-61
2021/08/05 08:26:56;;;;;;;2.83;2.28;;;28.60;83.10;;;;;;5091676;28;20694;-61
2021/08/05 08:29:23;;;;;;;3.22;2.10;;;28.90;83.30;;;;;;5091748;28;20652;-60
2021/08/05 08:31:50;;;;;;;3.35;2.35;;;29.10;82.60;;;;;;5091680;28;20628;-61
2021/08/05 08:34:18;;;;;;;3.63;2.45;;;29.30;81.50;;;;;;5091871;28;20207;-61
2021/08/05 08:36:45;;;;;;;7.00;5.15;;;29.10;81.40;;;;;;5091749;28;20228;-61
2021/08/05 08:39:12;;;;;;;2.35;2.13;;;28.90;82.50;;;;;;5091596;28;20204;-60
2021/08/05 08:41:40;;;;;;;2.70;2.28;;;28.70;83.30;;;;;;5091660;28;20211;-60
2021/08/05 08:44:08;;;;;;;3.97;2.00;;;28.50;82.90;;;;;;5091223;28;20213;-60
2021/08/05 08:46:35;;;;;;;3.75;2.38;;;28.30;84.30;;;;;;5091056;28;20711;-61
2021/08/05 08:49:04;;;;;;;8.50;5.93;;;28.10;84.00;;;;;;5091331;28;20213;-60
2021/08/05 08:51:33;;;;;;;3.45;2.20;;;28.00;84.80;;;;;;5091288;28;20663;-60
2021/08/05 08:54:03;;;;;;;5.43;2.60;;;28.00;85.10;;;;;;5090578;28;20222;-60
2021/08/05 08:56:33;;;;;;;4.15;2.38;;;27.90;85.50;;;;;;5091186;28;20220;-60
2021/08/05 08:59:01;;;;;;;5.63;2.17;;;27.80;85.80;;;;;;5091677;28;20207;-60
2021/08/05 09:01:30;;;;;;;9.75;2.47;;;27.70;85.60;;;;;;5091319;28;20575;-60
2021/08/05 09:03:56;;;;;;;4.18;2.05;;;27.70;86.50;;;;;;5091193;28;20555;-60
2021/08/05 09:06:24;;;;;;;3.58;2.63;;;27.70;86.90;;;;;;5091010;28;20232;-60
2021/08/05 09:08:52;;;;;;;5.10;2.40;;;27.90;86.80;;;;;;5091277;28;20213;-60
2021/08/05 09:11:19;;;;;;;4.03;2.45;;;28.00;86.30;;;;;;5091164;28;20204;-60
2021/08/05 09:13:47;;;;;;;3.95;2.30;;;28.20;85.20;;;;;;5091063;28;20204;-60
2021/08/05 09:16:25;;;;;;;3.78;2.47;;;28.20;85.30;;;;;;5090810;28;20235;-60
2021/08/05 09:18:52;;;;;;;4.25;2.45;;;28.20;84.90;;;;;;5090788;28;20200;-60
2021/08/05 09:21:22;;;;;;;3.97;2.25;;;28.20;84.90;;;;;;5090958;28;20231;-60
2021/08/05 09:23:56;;;;;;;3.63;2.50;;;28.30;85.70;;;;;;5090804;28;20204;-60
2021/08/05 09:26:27;;;;;;;6.18;2.00;;;28.40;85.00;;;;;;5091120;28;20235;-60
2021/08/05 09:29:05;;;;;;;5.80;2.08;;;28.50;84.90;;;;;;5091325;28;20216;-59
2021/08/05 09:31:34;;;;;;;4.07;2.10;;;28.50;84.00;;;;;;5092288;28;20583;-59
2021/08/05 09:34:05;;;;;;;5.30;2.30;;;28.50;83.00;;;;;;5091112;28;20219;-59
2021/08/05 09:36:33;;;;;;;4.00;2.33;;;28.50;83.60;;;;;;5090712;28;20235;-59
2021/08/05 09:39:13;;;;;;;2.53;2.15;;;28.50;83.10;;;;;;5090892;28;20261;-59
2021/08/05 09:41:52;;;;;;;3.20;2.13;;;28.50;83.60;;;;;;5091013;28;20208;-60
2021/08/05 09:44:19;;;;;;;3.65;2.10;;;28.60;83.80;;;;;;5091079;28;20211;-60
2021/08/05 09:46:45;;;;;;;3.08;2.05;;;28.60;83.70;;;;;;5090502;28;20228;-59
2021/08/05 09:49:17;;;;;;;4.38;2.38;;;28.40;83.80;;;;;;5090588;28;20341;-60
2021/08/05 09:51:44;;;;;;;3.47;2.20;;;28.30;84.30;;;;;;5090860;28;20247;-59
2021/08/05 09:54:12;;;;;;;4.43;1.98;;;28.20;84.10;;;;;;5090504;28;20204;-60
2021/08/05 09:56:39;;;;;;;4.70;1.90;;;28.10;84.10;;;;;;5090790;28;20231;-59
2021/08/05 09:59:11;;;;;;;4.43;1.90;;;28.00;84.40;;;;;;5090526;28;20204;-59
2021/08/05 10:01:53;;;;;;;4.15;2.00;;;28.20;83.80;;;;;;5091037;28;20215;-60
2021/08/05 10:04:27;;;;;;;2.65;2.00;;;28.60;82.50;;;;;;5090916;28;20265;-60
2021/08/05 10:07:03;;;;;;;2.85;2.03;;;28.90;81.10;;;;;;5094683;28;20200;-60
2021/08/05 10:09:32;;;;;;;3.95;2.60;;;28.90;81.70;;;;;;5094312;28;20204;-60
2021/08/05 10:12:31;;;;;;;2.63;2.20;;;28.90;81.80;;;;;;5094665;28;20212;-60
2021/08/05 10:15:10;;;;;;;3.15;2.38;;;28.70;81.50;;;;;;5071072;28;20597;-60
2021/08/05 10:17:38;;;;;;;2.55;2.30;;;28.30;82.20;;;;;;5094471;28;20261;-60
2021/08/05 10:20:06;;;;;;;2.17;1.98;;;27.60;84.50;;;;;;5093995;28;20615;-60
2021/08/05 10:22:33;;;;;;;2.65;2.42;;;27.10;86.50;;;;;;5091546;28;20688;-61
2021/08/05 10:25:02;;;;;;;3.17;2.60;;;27.00;87.60;;;;;;5093649;28;20235;-61
2021/08/05 10:27:30;;;;;;;3.25;2.28;;;26.90;87.50;;;;;;5094167;28;20336;-61
2021/08/05 10:29:58;;;;;;;3.42;2.20;;;26.50;89.00;;;;;;5094108;28;20213;-62
2021/08/05 10:32:25;;;;;;;4.72;2.40;;;26.30;89.60;;;;;;5093991;28;20208;-62
2021/08/05 10:34:53;;;;;;;3.88;2.22;;;26.00;90.20;;;;;;5094173;28;20228;-58
2021/08/05 10:37:20;;;;;;;5.68;1.98;;;25.80;90.90;;;;;;5094317;28;20204;-63
2021/08/05 10:39:48;;;;;;;3.35;2.10;;;25.90;90.40;;;;;;5093852;28;20621;-64
2021/08/05 10:42:18;;;;;;;4.95;3.38;;;25.90;90.20;;;;;;5093794;28;20714;-62
2021/08/05 10:44:46;;;;;;;3.95;2.05;;;26.10;89.10;;;;;;5093436;28;20211;-62
2021/08/05 10:47:14;;;;;;;2.38;2.00;;;26.40;88.50;;;;;;5093442;28;20636;-60
2021/08/05 10:49:41;;;;;;;2.42;1.85;;;26.60;87.90;;;;;;5093564;28;20208;-62
2021/08/05 10:52:28;;;;;;;2.33;1.80;;;26.80;86.50;;;;;;5093576;28;20208;-61
2021/08/05 10:54:55;;;;;;;2.55;1.95;;;27.00;86.00;;;;;;5092909;28;20220;-60
2021/08/05 10:57:25;;;;;;;2.58;1.98;;;27.20;85.40;;;;;;5093386;28;20473;-61
2021/08/05 11:00:04;;;;;;;4.82;1.83;;;27.60;83.70;;;;;;5093544;28;20235;-62
2021/08/05 11:02:46;;;;;;;4.53;2.10;;;28.10;81.30;;;;;;5093429;28;20352;-63
2021/08/05 11:05:33;;;;;;;2.00;1.60;;;28.20;81.40;;;;;;5092804;28;20247;-63
2021/08/05 11:08:24;;;;;;;2.03;1.73;;;28.50;79.00;;;;;;5093026;28;20710;-61
2021/08/05 11:11:11;;;;;;;5.00;1.80;;;28.60;78.60;;;;;;5093353;28;20204;-62
2021/08/05 11:13:39;;;;;;;2.92;1.80;;;28.40;78.90;;;;;;5092727;28;20204;-66
2021/08/05 11:16:05;;;;;;;4.60;1.80;;;28.20;79.80;;;;;;5092153;28;20220;-63
2021/08/05 11:18:32;;;;;;;2.60;1.70;;;28.00;80.20;;;;;;5092821;28;20216;-66
2021/08/05 11:21:24;;;;;;;1.98;1.50;;;28.00;79.60;;;;;;5093123;28;20212;-66
2021/08/05 11:23:51;;;;;;;7.00;5.10;;;28.00;80.30;;;;;;5092864;28;20591;-62
2021/08/05 11:26:18;;;;;;;3.97;2.17;;;28.00;79.90;;;;;;5092424;28;20237;-64
2021/08/05 11:28:48;;;;;;;2.08;1.70;;;28.20;80.10;;;;;;5092499;28;20212;-63
2021/08/05 11:31:32;;;;;;;2.53;1.75;;;28.30;79.60;;;;;;5093124;28;20213;-65
2021/08/05 11:33:59;;;;;;;2.22;1.50;;;28.30;78.30;;;;;;5092317;28;20326;-62
2021/08/05 11:36:47;;;;;;;3.30;1.60;;;28.30;79.00;;;;;;5092632;28;20318;-63
2021/08/05 11:39:23;;;;;;;4.88;1.77;;;28.20;80.40;;;;;;5092222;28;20302;-62
2021/08/05 11:42:04;;;;;;;4.47;2.20;;;28.20;78.90;;;;;;5092324;28;20204;-61
2021/08/05 11:44:38;;;;;;;1.98;1.77;;;28.40;79.80;;;;;;5092351;28;20214;-60
2021/08/05 11:47:30;;;;;;;3.80;2.60;;;28.60;79.10;;;;;;5092510;28;20262;-60
2021/08/05 11:50:10;;;;;;;5.30;1.83;;;28.90;77.50;;;;;;5092600;28;20204;-60
2021/08/05 11:52:40;;;;;;;1.60;1.40;;;29.10;77.50;;;;;;5092334;28;20211;-60
2021/08/05 11:55:09;;;;;;;2.28;1.63;;;29.30;76.10;;;;;;5092023;28;20742;-60
2021/08/05 11:57:38;;;;;;;2.80;1.50;;;29.60;75.20;;;;;;5092382;28;20208;-60
2021/08/05 12:00:13;;;;;;;2.63;1.50;;;29.70;73.60;;;;;;5092046;28;20212;-60
2021/08/05 12:02:40;;;;;;;6.32;1.80;;;29.70;74.20;;;;;;5092583;28;20238;-60
2021/08/05 12:05:08;;;;;;;4.00;1.70;;;29.80;74.30;;;;;;5091948;28;20285;-60
2021/08/05 12:07:36;;;;;;;2.72;1.30;;;29.90;73.90;;;;;;5092526;28;20215;-60
2021/08/05 12:10:12;;;;;;;3.50;1.35;;;30.10;72.60;;;;;;5092159;28;20211;-60
2021/08/05 12:12:42;;;;;;;1.98;1.38;;;30.30;71.90;;;;;;5092045;28;20599;-60
2021/08/05 12:15:13;;;;;;;2.40;1.70;;;30.30;71.70;;;;;;5091781;28;20315;-60
2021/08/05 12:17:44;;;;;;;3.78;1.67;;;30.00;71.70;;;;;;5092150;28;20212;-60
2021/08/05 12:20:14;;;;;;;5.90;1.98;;;29.20;74.70;;;;;;5091781;28;20208;-60
2021/08/05 12:22:43;;;;;;;5.13;1.92;;;28.50;76.30;;;;;;5091870;28;20211;-59
2021/08/05 12:25:31;;;;;;;3.25;1.83;;;28.10;76.90;;;;;;5091383;28;20289;-59
2021/08/05 12:28:00;;;;;;;2.67;1.88;;;27.70;76.50;;;;;;5090965;28;20437;-59
2021/08/05 12:30:37;;;;;;;1.67;1.13;;;27.60;77.10;;;;;;5091794;28;20204;-61
2021/08/05 12:33:06;;;;;;;2.38;1.70;;;27.50;77.90;;;;;;5091562;28;20207;-60
2021/08/05 12:35:33;;;;;;;1.80;1.30;;;27.60;78.40;;;;;;5091635;28;20247;-59
2021/08/05 12:38:05;;;;;;;2.22;1.25;;;27.80;77.50;;;;;;5091697;28;20208;-59
2021/08/05 12:40:33;;;;;;;2.13;1.35;;;28.10;76.50;;;;;;5091552;28;20208;-59
2021/08/05 12:43:03;;;;;;;3.50;1.67;;;28.10;76.70;;;;;;5091275;28;20212;-60
2021/08/05 12:45:35;;;;;;;1.40;1.25;;;28.00;77.00;;;;;;5091110;28;20738;-60
2021/08/05 12:48:03;;;;;;;2.30;1.40;;;28.00;76.90;;;;;;5091070;28;20496;-60
2021/08/05 12:50:30;;;;;;;2.40;1.50;;;27.90;77.90;;;;;;5091494;28;20208;-60
2021/08/05 12:52:57;;;;;;;5.35;1.50;;;28.30;77.00;;;;;;5091419;28;20215;-60
2021/08/05 12:55:23;;;;;;;1.40;1.30;;;28.80;74.80;;;;;;5090925;28;20220;-60